createdAt,value
2022-10-22T00:00:17.623Z,12.53
2022-10-22T00:01:17.710Z,12.50
2022-10-22T00:02:17.685Z,12.45
2022-10-22T00:03:17.740Z,12.44
2022-10-22T00:04:17.813Z,12.45
2022-10-22T00:05:17.775Z,12.48
2022-10-22T00:06:17.831Z,12.47
2022-10-22T00:07:17.884Z,12.47
2022-10-22T00:08:17.936Z,12.44
2022-10-22T00:09:18.100Z,12.43
2022-10-22T00:10:18.005Z,12.36
2022-10-22T00:11:18.055Z,12.35
2022-10-22T00:12:18.095Z,12.32
2022-10-22T00:13:18.998Z,12.35
2022-10-22T00:14:18.190Z,12.37
2022-10-22T00:15:18.196Z,12.39
2022-10-22T00:16:18.156Z,12.36
2022-10-22T00:17:18.207Z,12.36
2022-10-22T00:18:18.258Z,12.33
2022-10-22T00:19:18.333Z,12.30
2022-10-22T00:20:18.386Z,12.26
2022-10-22T00:21:18.438Z,12.20
2022-10-22T00:22:18.489Z,12.18
2022-10-22T00:23:18.538Z,12.14
2022-10-22T00:24:18.586Z,12.12
2022-10-22T00:25:18.649Z,12.12
2022-10-22T00:26:18.690Z,12.14
2022-10-22T00:27:18.758Z,12.10
2022-10-22T00:28:18.807Z,12.03
2022-10-22T00:29:18.859Z,12.05
2022-10-22T00:30:18.903Z,12.10
2022-10-22T00:31:18.957Z,12.12
2022-10-22T00:32:19.028Z,12.11
2022-10-22T00:33:18.992Z,12.08
2022-10-22T00:34:19.041Z,12.03
2022-10-22T00:35:19.091Z,12.00
2022-10-22T00:36:19.140Z,12.00
2022-10-22T00:37:19.203Z,12.00
2022-10-22T00:38:19.263Z,11.97
2022-10-22T00:39:19.322Z,11.96
2022-10-22T00:40:19.373Z,12.00
2022-10-22T00:41:19.437Z,12.00
2022-10-22T00:42:19.484Z,12.03
2022-10-22T00:43:19.557Z,12.05
2022-10-22T00:44:19.604Z,12.03
2022-10-22T00:45:19.645Z,12.02
2022-10-22T00:46:19.714Z,12.03
2022-10-22T00:47:19.756Z,12.00
2022-10-22T00:48:19.812Z,12.00
2022-10-22T00:49:19.866Z,11.96
2022-10-22T00:50:19.917Z,11.99
2022-10-22T00:51:19.976Z,12.03
2022-10-22T00:52:20.025Z,12.03
2022-10-22T00:53:20.086Z,12.02
2022-10-22T00:54:20.048Z,11.96
2022-10-22T00:55:20.106Z,11.91
2022-10-22T00:56:20.169Z,11.88
2022-10-22T00:57:20.244Z,11.85
2022-10-22T00:58:20.285Z,11.85
2022-10-22T00:59:20.339Z,11.89
2022-10-22T01:00:20.409Z,11.86
2022-10-22T01:01:20.520Z,11.88
2022-10-22T01:02:20.518Z,11.88
2022-10-22T01:03:20.569Z,11.88
2022-10-22T01:04:20.629Z,11.86
2022-10-22T01:05:20.690Z,11.83
2022-10-22T01:06:20.751Z,11.80
2022-10-22T01:07:20.811Z,11.76
2022-10-22T01:08:20.890Z,11.73
2022-10-22T01:09:20.872Z,11.70
2022-10-22T01:10:20.931Z,11.70
2022-10-22T01:11:21.012Z,11.70
2022-10-22T01:12:20.991Z,11.70
2022-10-22T01:13:21.053Z,11.70
2022-10-22T01:14:21.104Z,11.70
2022-10-22T01:15:21.163Z,11.73
2022-10-22T01:16:21.243Z,11.76
2022-10-22T01:18:21.313Z,11.73
2022-10-22T01:19:21.395Z,11.71
2022-10-22T01:20:21.364Z,11.68
2022-10-22T01:21:21.415Z,11.68
2022-10-22T01:22:21.476Z,11.67
2022-10-22T01:23:21.535Z,11.68
2022-10-22T01:24:21.595Z,11.67
2022-10-22T01:25:21.654Z,11.67
2022-10-22T01:26:21.720Z,11.70
2022-10-22T01:27:21.776Z,11.67
2022-10-22T01:28:21.839Z,11.65
2022-10-22T01:29:21.887Z,11.60
2022-10-22T01:30:21.958Z,11.58
2022-10-22T01:31:22.009Z,11.53
2022-10-22T01:32:22.067Z,11.52
2022-10-22T01:33:22.117Z,11.49
2022-10-22T01:34:22.178Z,11.49
2022-10-22T01:35:22.285Z,11.53
2022-10-22T01:36:22.254Z,11.53
2022-10-22T01:37:22.358Z,11.49
2022-10-22T01:38:22.327Z,11.48
2022-10-22T01:39:22.384Z,11.48
2022-10-22T01:40:22.441Z,11.49
2022-10-22T01:41:22.541Z,11.49
2022-10-22T01:42:22.519Z,11.51
2022-10-22T01:43:22.481Z,11.49
2022-10-22T01:44:22.579Z,11.51
2022-10-22T01:45:22.591Z,11.53
2022-10-22T01:46:22.726Z,11.51
2022-10-22T01:47:22.693Z,11.53
2022-10-22T01:48:22.755Z,11.56
2022-10-22T01:49:22.802Z,11.59
2022-10-22T01:50:22.876Z,11.60
2022-10-22T01:51:22.923Z,11.59
2022-10-22T01:52:22.973Z,11.62
2022-10-22T01:53:23.043Z,11.63
2022-10-22T01:54:23.096Z,11.68
2022-10-22T01:55:23.165Z,11.74
2022-10-22T01:56:23.146Z,11.77
2022-10-22T01:57:23.195Z,11.77
2022-10-22T01:58:23.255Z,11.78
2022-10-22T01:59:23.304Z,11.76
2022-10-22T02:00:23.384Z,11.76
2022-10-22T02:01:23.366Z,11.80
2022-10-22T02:02:23.407Z,11.85
2022-10-22T02:03:23.948Z,11.80
2022-10-22T02:04:23.446Z,11.80
2022-10-22T02:05:23.518Z,11.78
2022-10-22T02:06:23.518Z,11.81
2022-10-22T02:07:23.567Z,11.83
2022-10-22T02:08:23.638Z,11.85
2022-10-22T02:09:23.690Z,11.85
2022-10-22T02:10:23.748Z,11.88
2022-10-22T02:11:23.798Z,11.88
2022-10-22T02:12:23.856Z,11.86
2022-10-22T02:13:23.918Z,11.86
2022-10-22T02:14:23.972Z,11.85
2022-10-22T02:15:24.022Z,11.85
2022-10-22T02:16:24.112Z,11.81
2022-10-22T02:17:24.086Z,11.81
2022-10-22T02:18:24.157Z,11.80
2022-10-22T02:19:24.131Z,11.76
2022-10-22T02:20:24.192Z,11.73
2022-10-22T02:21:24.241Z,11.71
2022-10-22T02:22:24.311Z,11.73
2022-10-22T02:23:24.381Z,11.70
2022-10-22T02:24:24.443Z,11.70
2022-10-22T02:25:24.502Z,11.67
2022-10-22T02:26:25.511Z,11.65
2022-10-22T02:27:26.928Z,11.63
2022-10-22T02:28:24.582Z,11.59
2022-10-22T02:29:24.633Z,11.58
2022-10-22T02:30:24.720Z,11.56
2022-10-22T02:31:24.690Z,11.59
2022-10-22T02:32:24.745Z,11.62
2022-10-22T02:33:24.805Z,11.63
2022-10-22T02:34:24.854Z,11.67
2022-10-22T02:35:24.919Z,11.67
2022-10-22T02:36:24.893Z,11.67
2022-10-22T02:37:24.956Z,11.67
2022-10-22T02:38:25.011Z,11.68
2022-10-22T02:39:25.066Z,11.63
2022-10-22T02:40:25.121Z,11.63
2022-10-22T02:41:25.177Z,11.65
2022-10-22T02:42:25.255Z,11.63
2022-10-22T02:43:25.216Z,11.65
2022-10-22T02:44:25.276Z,11.67
2022-10-22T02:45:25.329Z,11.70
2022-10-22T02:46:25.397Z,11.71
2022-10-22T02:47:25.478Z,11.71
2022-10-22T02:48:25.452Z,11.73
2022-10-22T02:49:25.508Z,11.71
2022-10-22T02:50:25.587Z,11.71
2022-10-22T02:51:25.559Z,11.71
2022-10-22T02:52:25.620Z,11.71
2022-10-22T02:53:25.690Z,11.71
2022-10-22T02:54:25.662Z,11.70
2022-10-22T02:55:25.711Z,11.70
2022-10-22T02:56:25.771Z,11.68
2022-10-22T02:57:25.840Z,11.68
2022-10-22T02:58:25.900Z,11.65
2022-10-22T02:59:25.959Z,11.62
2022-10-22T03:00:26.027Z,11.62
2022-10-22T03:01:26.101Z,11.62
2022-10-22T03:02:26.071Z,11.60
2022-10-22T03:03:26.132Z,11.56
2022-10-22T03:04:26.183Z,11.51
2022-10-22T03:05:26.263Z,11.44
2022-10-22T03:07:26.343Z,11.37
2022-10-22T03:08:26.414Z,11.37
2022-10-22T03:09:26.464Z,11.37
2022-10-22T03:10:26.526Z,11.35
2022-10-22T03:11:26.578Z,11.40
2022-10-22T03:12:26.645Z,11.41
2022-10-22T03:13:26.624Z,11.38
2022-10-22T03:14:26.685Z,11.37
2022-10-22T03:16:26.757Z,11.37
2022-10-22T03:17:26.826Z,11.37
2022-10-22T03:18:26.796Z,11.33
2022-10-22T03:19:26.856Z,11.30
2022-10-22T03:20:26.906Z,11.26
2022-10-22T03:21:26.959Z,11.25
2022-10-22T03:22:27.017Z,11.25
2022-10-22T03:23:27.068Z,11.25
2022-10-22T03:24:27.120Z,11.22
2022-10-22T03:25:27.168Z,11.20
2022-10-22T03:26:27.228Z,11.19
2022-10-22T03:27:27.279Z,11.19
2022-10-22T03:28:27.339Z,11.22
2022-10-22T03:29:27.390Z,11.20
2022-10-22T03:30:27.450Z,11.20
2022-10-22T03:31:27.500Z,11.18
2022-10-22T03:32:27.540Z,11.18
2022-10-22T03:33:27.611Z,11.15
2022-10-22T03:34:27.580Z,11.10
2022-10-22T03:35:27.621Z,11.05
2022-10-22T03:36:27.669Z,11.04
2022-10-22T03:37:27.712Z,11.07
2022-10-22T03:38:27.776Z,11.10
2022-10-22T03:39:27.842Z,11.10
2022-10-22T03:40:27.807Z,11.12
2022-10-22T03:41:27.852Z,11.10
2022-10-22T03:42:27.893Z,11.12
2022-10-22T03:43:27.942Z,11.10
2022-10-22T03:44:27.993Z,11.08
2022-10-22T03:45:28.124Z,11.05
2022-10-22T03:46:28.034Z,11.08
2022-10-22T03:47:28.077Z,11.07
2022-10-22T03:48:28.117Z,11.05
2022-10-22T03:49:28.177Z,11.02
2022-10-22T03:50:28.251Z,11.01
2022-10-22T03:51:28.282Z,10.94
2022-10-22T03:52:28.327Z,10.94
2022-10-22T03:53:28.365Z,10.98
2022-10-22T03:54:28.447Z,11.00
2022-10-22T03:55:28.456Z,11.00
2022-10-22T03:56:28.507Z,10.98
2022-10-22T03:57:28.566Z,10.95
2022-10-22T03:58:28.606Z,11.00
2022-10-22T03:59:28.650Z,11.02
2022-10-22T04:00:28.697Z,11.02
2022-10-22T04:01:28.770Z,11.02
2022-10-22T04:02:28.759Z,10.98
2022-10-22T04:03:28.818Z,10.95
2022-10-22T04:04:28.859Z,10.92
2022-10-22T04:05:28.911Z,10.86
2022-10-22T04:06:28.980Z,10.80
2022-10-22T04:07:28.959Z,10.79
2022-10-22T04:08:29.019Z,10.77
2022-10-22T04:09:29.060Z,10.82
2022-10-22T04:10:29.100Z,10.82
2022-10-22T04:11:29.143Z,10.83
2022-10-22T04:12:29.201Z,10.83
2022-10-22T04:13:29.240Z,10.83
2022-10-22T04:14:29.290Z,10.83
2022-10-22T04:15:29.353Z,10.86
2022-10-22T04:16:30.588Z,10.87
2022-10-22T04:17:29.463Z,10.89
2022-10-22T04:18:29.512Z,10.92
2022-10-22T04:19:29.606Z,10.94
2022-10-22T04:20:29.573Z,10.95
2022-10-22T04:21:29.613Z,10.92
2022-10-22T04:22:29.664Z,10.92
2022-10-22T04:23:29.693Z,10.90
2022-10-22T04:24:29.745Z,10.89
2022-10-22T04:25:29.798Z,10.87
2022-10-22T04:26:29.865Z,10.84
2022-10-22T04:27:29.825Z,10.83
2022-10-22T04:28:29.875Z,10.84
2022-10-22T04:29:29.928Z,10.90
2022-10-22T04:30:29.965Z,10.94
2022-10-22T04:31:30.029Z,10.95
2022-10-22T04:32:30.076Z,10.97
2022-10-22T04:33:30.135Z,10.94
2022-10-22T04:34:30.178Z,10.89
2022-10-22T04:35:30.226Z,10.87
2022-10-22T04:36:30.267Z,10.90
2022-10-22T04:37:30.335Z,10.94
2022-10-22T04:38:30.379Z,10.94
2022-10-22T04:39:30.418Z,10.94
2022-10-22T04:40:30.464Z,10.92
2022-10-22T04:41:30.509Z,10.94
2022-10-22T04:42:30.583Z,10.95
2022-10-22T04:43:30.627Z,10.94
2022-10-22T04:44:30.678Z,10.97
2022-10-22T04:45:30.719Z,10.97
2022-10-22T04:46:30.777Z,10.97
2022-10-22T04:47:30.828Z,10.97
2022-10-22T04:48:30.880Z,11.00
2022-10-22T04:49:30.919Z,10.98
2022-10-22T04:50:30.965Z,10.98
2022-10-22T04:51:31.012Z,10.95
2022-10-22T04:52:31.074Z,10.94
2022-10-22T04:53:31.121Z,10.89
2022-10-22T04:54:33.110Z,10.86
2022-10-22T04:56:31.181Z,10.82
2022-10-22T04:57:31.242Z,10.82
2022-10-22T04:58:31.283Z,10.82
2022-10-22T04:59:31.327Z,10.83
2022-10-22T05:00:31.363Z,10.84
2022-10-22T05:01:31.454Z,10.86
2022-10-22T05:02:31.464Z,10.87
2022-10-22T05:03:31.504Z,10.86
2022-10-22T05:04:31.557Z,10.82
2022-10-22T05:05:31.595Z,10.83
2022-10-22T05:06:31.645Z,10.89
2022-10-22T05:07:31.711Z,10.90
2022-10-22T05:08:31.795Z,10.90
2022-10-22T05:09:31.775Z,10.87
2022-10-22T05:10:31.829Z,10.84
2022-10-22T05:11:31.875Z,10.77
2022-10-22T05:12:31.927Z,10.76
2022-10-22T05:13:31.987Z,10.84
2022-10-22T05:14:32.028Z,10.92
2022-10-22T05:15:32.068Z,10.94
2022-10-22T05:16:32.185Z,10.95
2022-10-22T05:17:32.191Z,10.95
2022-10-22T05:18:32.243Z,10.94
2022-10-22T05:19:32.311Z,10.94
2022-10-22T05:20:32.350Z,10.94
2022-10-22T05:21:32.401Z,10.90
2022-10-22T05:22:32.469Z,10.90
2022-10-22T05:23:32.511Z,10.83
2022-10-22T05:24:32.563Z,10.79
2022-10-22T05:25:32.615Z,10.75
2022-10-22T05:26:32.650Z,10.71
2022-10-22T05:27:32.723Z,10.64
2022-10-22T05:28:32.761Z,10.57
2022-10-22T05:29:32.811Z,10.53
2022-10-22T05:30:32.854Z,10.53
2022-10-22T05:31:32.902Z,10.51
2022-10-22T05:32:32.962Z,10.51
2022-10-22T05:33:33.013Z,10.53
2022-10-22T05:34:33.062Z,10.53
2022-10-22T05:35:33.112Z,10.58
2022-10-22T05:36:33.185Z,10.59
2022-10-22T05:37:33.244Z,10.59
2022-10-22T05:38:33.232Z,10.57
2022-10-22T05:39:34.156Z,10.53
2022-10-22T05:40:33.232Z,10.51
2022-10-22T05:41:33.224Z,10.46
2022-10-22T05:42:33.224Z,10.41
2022-10-22T05:43:33.224Z,10.41
2022-10-22T05:44:33.236Z,10.39
2022-10-22T05:45:33.226Z,10.38
2022-10-22T05:46:33.235Z,10.36
2022-10-22T05:47:33.215Z,10.39
2022-10-22T05:49:33.237Z,10.43
2022-10-22T05:50:33.255Z,10.43
2022-10-22T05:51:33.301Z,10.46
2022-10-22T05:52:33.272Z,10.55
2022-10-22T05:53:33.338Z,10.61
2022-10-22T05:54:33.421Z,10.65
2022-10-22T05:55:33.387Z,10.65
2022-10-22T05:56:33.450Z,10.67
2022-10-22T05:57:33.499Z,10.65
2022-10-22T05:58:33.582Z,10.75
2022-10-22T05:59:33.648Z,10.80
2022-10-22T06:00:33.619Z,10.83
2022-10-22T06:01:33.609Z,10.83
2022-10-22T06:02:33.676Z,10.83
2022-10-22T06:03:33.629Z,10.86
2022-10-22T06:04:33.630Z,10.87
2022-10-22T06:05:33.631Z,10.89
2022-10-22T06:06:33.626Z,10.89
2022-10-22T06:07:33.610Z,10.92
2022-10-22T06:08:33.643Z,10.94
2022-10-22T06:09:33.708Z,10.95
2022-10-22T06:10:33.721Z,11.01
2022-10-22T06:11:35.223Z,11.05
2022-10-22T06:12:33.742Z,11.05
2022-10-22T06:13:33.775Z,11.04
2022-10-22T06:14:33.761Z,11.02
2022-10-22T06:15:33.772Z,11.04
2022-10-22T06:16:33.800Z,11.07
2022-10-22T06:17:33.794Z,11.10
2022-10-22T06:18:33.803Z,11.10
2022-10-22T06:19:33.843Z,11.13
2022-10-22T06:20:33.879Z,11.15
2022-10-22T06:21:33.888Z,11.15
2022-10-22T06:22:33.946Z,11.15
2022-10-22T06:23:33.998Z,11.16
2022-10-22T06:24:34.045Z,11.20
2022-10-22T06:25:34.105Z,11.22
2022-10-22T06:26:34.157Z,11.20
2022-10-22T06:27:34.218Z,11.20
2022-10-22T06:28:34.244Z,11.25
2022-10-22T06:29:34.261Z,11.23
2022-10-22T06:30:34.288Z,11.22
2022-10-22T06:31:34.308Z,11.20
2022-10-22T06:32:34.368Z,11.23
2022-10-22T06:33:34.426Z,11.23
2022-10-22T06:34:34.468Z,11.31
2022-10-22T06:35:34.507Z,11.35
2022-10-22T06:36:34.613Z,11.35
2022-10-22T06:37:34.628Z,11.34
2022-10-22T06:38:34.678Z,11.38
2022-10-22T06:39:34.708Z,11.49
2022-10-22T06:40:34.770Z,11.55
2022-10-22T06:41:34.818Z,11.58
2022-10-22T06:42:34.809Z,11.58
2022-10-22T06:43:34.860Z,11.59
2022-10-22T06:44:34.890Z,11.63
2022-10-22T06:45:34.861Z,11.68
2022-10-22T06:46:34.880Z,11.67
2022-10-22T06:47:34.954Z,11.70
2022-10-22T06:48:34.942Z,11.74
2022-10-22T06:49:34.972Z,11.81
2022-10-22T06:50:34.952Z,11.88
2022-10-22T06:51:34.957Z,11.96
2022-10-22T06:52:34.955Z,12.03
2022-10-22T06:53:34.973Z,12.15
2022-10-22T06:54:35.003Z,12.37
2022-10-22T06:55:35.024Z,12.62
2022-10-22T06:56:35.044Z,12.78
2022-10-22T06:57:35.064Z,13.02
2022-10-22T06:58:35.078Z,13.27
2022-10-22T06:59:35.094Z,13.55
2022-10-22T07:00:35.144Z,13.75
2022-10-22T07:01:35.222Z,13.70
2022-10-22T07:02:35.129Z,13.70
2022-10-22T07:03:35.138Z,13.65
2022-10-22T07:04:35.174Z,13.73
2022-10-22T07:05:35.239Z,13.95
2022-10-22T07:06:35.241Z,14.16
2022-10-22T07:07:35.199Z,14.44
2022-10-22T07:08:35.282Z,14.82
2022-10-22T07:09:35.281Z,15.11
2022-10-22T07:10:35.342Z,15.23
2022-10-22T07:11:35.403Z,15.30
2022-10-22T07:12:35.410Z,15.37
2022-10-22T07:13:35.468Z,15.33
2022-10-22T07:14:35.490Z,15.29
2022-10-22T07:15:35.518Z,15.43
2022-10-22T07:16:35.570Z,15.59
2022-10-22T07:17:35.672Z,15.69
2022-10-22T07:18:35.652Z,15.81
2022-10-22T07:19:35.672Z,15.90
2022-10-22T07:20:35.739Z,16.24
2022-10-22T07:21:35.775Z,16.49
2022-10-22T07:22:35.815Z,16.65
2022-10-22T07:23:35.863Z,16.79
2022-10-22T07:24:35.893Z,17.09
2022-10-22T07:25:35.882Z,17.07
2022-10-22T07:26:35.886Z,16.84
2022-10-22T07:27:35.898Z,17.17
2022-10-22T07:28:35.919Z,17.53
2022-10-22T07:31:01.872Z,17.60
2022-10-22T07:32:01.863Z,17.86
2022-10-22T07:34:27.847Z,18.11
2022-10-22T07:35:27.916Z,18.05
2022-10-22T07:36:28.035Z,17.73
2022-10-22T07:37:27.977Z,17.52
2022-10-22T07:38:28.018Z,17.44
2022-10-22T07:39:28.012Z,17.72
2022-10-22T07:40:28.097Z,17.94
2022-10-22T07:41:28.120Z,18.12
2022-10-22T07:43:28.180Z,18.36
2022-10-22T07:44:28.191Z,18.43
2022-10-22T07:45:28.191Z,18.36
2022-10-22T07:46:28.214Z,18.51
2022-10-22T07:47:28.233Z,18.34
2022-10-22T07:48:28.234Z,18.23
2022-10-22T07:49:28.323Z,18.46
2022-10-22T07:50:28.256Z,18.64
2022-10-22T07:51:28.256Z,18.81
2022-10-22T07:52:28.263Z,19.09
2022-10-22T07:53:28.266Z,18.73
2022-10-22T07:54:28.267Z,18.70
2022-10-22T07:55:28.347Z,18.58
2022-10-22T07:56:28.407Z,17.94
2022-10-22T07:57:28.477Z,17.42
2022-10-22T07:58:28.558Z,16.79
2022-10-22T07:59:28.541Z,16.66
2022-10-22T08:00:28.540Z,16.92
2022-10-22T08:01:28.638Z,17.68
2022-10-22T08:02:28.595Z,18.55
2022-10-22T08:03:28.626Z,19.19
2022-10-22T08:04:28.620Z,19.67
2022-10-22T08:05:28.611Z,20.18
2022-10-22T08:06:28.622Z,20.33
2022-10-22T08:07:28.664Z,20.46
2022-10-22T08:08:30.716Z,20.86
2022-10-22T08:09:28.713Z,21.29
2022-10-22T08:10:28.779Z,20.78
2022-10-22T08:11:28.776Z,19.92
2022-10-22T08:12:28.795Z,19.48
2022-10-22T08:13:28.865Z,19.37
2022-10-22T08:14:28.866Z,19.74
2022-10-22T08:15:28.880Z,19.82
2022-10-22T08:16:28.895Z,19.92
2022-10-22T08:17:28.898Z,20.08
2022-10-22T08:18:28.922Z,20.36
2022-10-22T08:19:28.929Z,20.64
2022-10-22T08:20:28.909Z,20.24
2022-10-22T08:21:28.913Z,20.19
2022-10-22T08:22:28.901Z,20.42
2022-10-22T08:23:28.970Z,20.49
2022-10-22T08:24:28.941Z,20.19
2022-10-22T08:25:28.941Z,20.07
2022-10-22T08:26:28.973Z,20.29
2022-10-22T08:27:28.973Z,20.42
2022-10-22T08:28:28.975Z,20.44
2022-10-22T08:29:29.002Z,20.58
2022-10-22T08:30:28.994Z,20.59
2022-10-22T08:31:29.007Z,20.85
2022-10-22T08:32:29.006Z,20.77
2022-10-22T08:33:28.980Z,20.95
2022-10-22T08:34:28.996Z,20.86
2022-10-22T08:35:29.046Z,20.96
2022-10-22T08:36:29.088Z,20.95
2022-10-22T08:37:29.144Z,20.83
2022-10-22T08:38:29.899Z,20.42
2022-10-22T08:39:29.203Z,19.82
2022-10-22T08:40:29.260Z,19.12
2022-10-22T08:41:29.310Z,18.52
2022-10-22T08:42:29.391Z,18.13
2022-10-22T08:43:29.442Z,17.95
2022-10-22T08:44:30.343Z,18.02
2022-10-22T08:45:29.502Z,18.58
2022-10-22T08:46:29.534Z,19.12
2022-10-22T08:47:29.537Z,19.30
2022-10-22T08:48:29.595Z,19.17
2022-10-22T08:49:29.555Z,18.61
2022-10-22T08:50:29.613Z,18.33
2022-10-22T08:51:29.679Z,18.19
2022-10-22T08:52:29.755Z,18.55
2022-10-22T08:53:29.716Z,19.05
2022-10-22T08:54:29.726Z,19.41
2022-10-22T08:55:31.747Z,19.59
2022-10-22T08:56:30.629Z,19.81
2022-10-22T08:58:30.726Z,20.26
2022-10-22T08:59:29.779Z,20.08
2022-10-22T09:00:29.887Z,19.92
2022-10-22T09:01:29.957Z,20.46
2022-10-22T09:02:30.819Z,20.63
2022-10-22T09:03:30.103Z,19.94
2022-10-22T09:04:30.093Z,19.48
2022-10-22T09:05:30.112Z,19.45
2022-10-22T09:06:30.193Z,19.45
2022-10-22T09:07:30.182Z,19.82
2022-10-22T09:08:30.204Z,19.53
2022-10-22T09:09:30.265Z,19.07
2022-10-22T09:10:30.314Z,18.73
2022-10-22T09:11:30.365Z,18.57
2022-10-22T09:12:30.415Z,18.43
2022-10-22T09:13:30.465Z,18.42
2022-10-22T09:14:30.536Z,18.27
2022-10-22T09:15:30.597Z,18.27
2022-10-22T09:16:30.646Z,18.18
2022-10-22T09:17:30.677Z,17.95
2022-10-22T09:18:30.718Z,17.87
2022-10-22T09:19:30.745Z,17.80
2022-10-22T09:20:30.788Z,17.80
2022-10-22T09:21:30.846Z,17.88
2022-10-22T09:22:30.870Z,17.93
2022-10-22T09:23:30.863Z,18.00
2022-10-22T09:24:32.873Z,18.18
2022-10-22T09:25:30.947Z,18.71
2022-10-22T09:26:30.943Z,18.97
2022-10-22T09:27:30.970Z,19.05
2022-10-22T09:28:30.961Z,18.78
2022-10-22T09:29:30.982Z,18.66
2022-10-22T09:30:31.033Z,18.51
2022-10-22T09:31:31.031Z,18.78
2022-10-22T09:32:31.084Z,19.09
2022-10-22T09:33:31.133Z,20.08
2022-10-22T09:34:31.185Z,20.21
2022-10-22T09:35:31.238Z,20.34
2022-10-22T09:36:31.285Z,20.55
2022-10-22T09:37:31.294Z,20.50
2022-10-22T09:38:31.335Z,20.21
2022-10-22T09:39:31.296Z,19.97
2022-10-22T09:40:31.337Z,19.96
2022-10-22T09:41:31.376Z,19.97
2022-10-22T09:42:31.406Z,19.49
2022-10-22T09:43:31.447Z,19.55
2022-10-22T09:44:31.468Z,19.48
2022-10-22T09:45:31.513Z,19.64
2022-10-22T09:46:31.529Z,19.47
2022-10-22T09:47:43.022Z,19.32
2022-10-22T09:48:31.587Z,19.17
2022-10-22T09:49:31.600Z,19.07
2022-10-22T09:50:31.602Z,18.85
2022-10-22T09:51:31.621Z,18.70
2022-10-22T09:52:31.640Z,18.58
2022-10-22T09:53:31.625Z,18.57
2022-10-22T09:54:31.643Z,18.63
2022-10-22T09:55:31.724Z,18.81
2022-10-22T09:56:31.775Z,18.78
2022-10-22T09:57:31.765Z,18.85
2022-10-22T09:58:31.808Z,18.91
2022-10-22T09:59:31.795Z,19.15
2022-10-22T10:00:31.784Z,19.24
2022-10-22T10:01:31.768Z,19.07
2022-10-22T10:02:38.145Z,18.97
2022-10-22T10:03:31.927Z,18.88
2022-10-22T10:04:31.930Z,18.81
2022-10-22T10:05:31.926Z,18.71
2022-10-22T10:06:31.946Z,18.61
2022-10-22T10:07:31.972Z,18.45
2022-10-22T10:08:32.089Z,18.36
2022-10-22T10:09:31.991Z,18.34
2022-10-22T10:10:32.039Z,18.41
2022-10-22T10:11:32.079Z,18.51
2022-10-22T10:12:32.098Z,18.81
2022-10-22T10:13:32.111Z,19.34
2022-10-22T10:14:32.100Z,19.82
2022-10-22T10:15:32.141Z,19.72
2022-10-22T10:16:32.163Z,19.62
2022-10-22T10:17:32.202Z,19.72
2022-10-22T10:18:32.260Z,20.42
2022-10-22T10:19:32.244Z,20.86
2022-10-22T10:20:32.333Z,21.08
2022-10-22T10:21:32.363Z,21.00
2022-10-22T10:22:32.433Z,20.92
2022-10-22T10:23:32.464Z,20.53
2022-10-22T10:24:32.495Z,20.34
2022-10-22T10:25:32.563Z,20.27
2022-10-22T10:26:32.536Z,20.60
2022-10-22T10:27:32.586Z,20.32
2022-10-22T10:28:32.634Z,20.34
2022-10-22T10:29:32.723Z,20.46
2022-10-22T10:30:32.698Z,20.46
2022-10-22T10:31:32.686Z,20.53
2022-10-22T10:32:32.767Z,21.00
2022-10-22T10:33:32.771Z,21.53
2022-10-22T10:34:32.839Z,21.62
2022-10-22T10:35:32.879Z,21.03
2022-10-22T10:36:32.940Z,20.88
2022-10-22T10:37:33.001Z,20.49
2022-10-22T10:38:33.074Z,19.97
2022-10-22T10:39:33.112Z,19.77
2022-10-22T10:40:33.101Z,19.42
2022-10-22T10:41:33.104Z,19.34
2022-10-22T10:42:33.132Z,18.97
2022-10-22T10:43:33.224Z,18.98
2022-10-22T10:44:33.253Z,19.11
2022-10-22T10:45:33.294Z,19.12
2022-10-22T10:46:36.236Z,19.04
2022-10-22T10:47:33.354Z,19.01
2022-10-22T10:48:33.398Z,19.00
2022-10-22T10:49:33.435Z,19.01
2022-10-22T10:50:33.488Z,19.08
2022-10-22T10:51:33.467Z,19.11
2022-10-22T10:52:33.489Z,19.56
2022-10-22T10:53:33.527Z,20.30
2022-10-22T10:54:33.556Z,20.68
2022-10-22T10:55:33.560Z,20.63
2022-10-22T10:56:36.782Z,20.27
2022-10-22T10:57:33.634Z,20.48
2022-10-22T10:58:33.689Z,19.85
2022-10-22T10:59:33.787Z,19.66
2022-10-22T11:00:33.810Z,19.44
2022-10-22T11:01:33.888Z,19.34
2022-10-22T11:02:33.924Z,19.38
2022-10-22T11:03:33.974Z,19.99
2022-10-22T11:04:33.993Z,20.02
2022-10-22T11:05:34.004Z,20.48
2022-10-22T11:06:34.014Z,20.80
2022-10-22T11:07:35.098Z,20.60
2022-10-22T11:08:34.111Z,20.48
2022-10-22T11:09:34.014Z,20.39
2022-10-22T11:10:34.057Z,20.21
2022-10-22T11:11:34.027Z,20.00
2022-10-22T11:12:35.425Z,19.84
2022-10-22T11:13:34.046Z,19.62
2022-10-22T11:14:34.126Z,19.52
2022-10-22T11:15:34.127Z,19.29
2022-10-22T11:16:34.107Z,19.19
2022-10-22T11:17:34.118Z,19.00
2022-10-22T11:18:34.121Z,18.89
2022-10-22T11:19:50.315Z,18.85
2022-10-22T11:20:34.158Z,18.78
2022-10-22T11:21:34.399Z,18.66
2022-10-22T11:22:34.934Z,18.76
2022-10-22T11:23:34.251Z,18.76
2022-10-22T11:24:34.231Z,18.88
2022-10-22T11:25:34.292Z,18.88
2022-10-22T11:26:34.313Z,18.83
2022-10-22T11:27:34.371Z,18.79
2022-10-22T11:28:34.432Z,18.73
2022-10-22T11:29:34.472Z,18.63
2022-10-22T11:30:34.523Z,18.49
2022-10-22T11:31:35.420Z,18.34
2022-10-22T11:32:34.555Z,18.27
2022-10-22T11:33:34.596Z,18.19
2022-10-22T11:34:34.827Z,18.09
2022-10-22T11:35:34.575Z,18.05
2022-10-22T11:36:34.578Z,18.03
2022-10-22T11:37:34.616Z,18.00
2022-10-22T11:38:35.131Z,17.97
2022-10-22T11:39:34.742Z,17.97
2022-10-22T11:40:34.778Z,17.98
2022-10-22T11:41:35.008Z,17.97
2022-10-22T11:42:34.847Z,17.98
2022-10-22T11:43:34.870Z,17.98
2022-10-22T11:44:34.909Z,17.98
2022-10-22T11:45:34.979Z,17.95
2022-10-22T11:46:34.998Z,17.97
2022-10-22T11:47:34.998Z,18.03
2022-10-22T11:48:35.054Z,18.12
2022-10-22T11:49:35.100Z,18.18
2022-10-22T11:50:35.091Z,18.27
2022-10-22T11:51:35.130Z,18.24
2022-10-22T11:52:35.131Z,18.24
2022-10-22T11:53:35.181Z,18.30
2022-10-22T11:54:35.226Z,18.11
2022-10-22T11:55:35.233Z,18.05
2022-10-22T11:56:35.272Z,18.03
2022-10-22T11:57:35.340Z,18.03
2022-10-22T11:58:35.310Z,18.05
2022-10-22T11:59:35.317Z,18.21
2022-10-22T12:00:35.294Z,18.78
2022-10-22T12:02:35.339Z,18.94
2022-10-22T12:03:35.316Z,18.81
2022-10-22T12:04:35.412Z,19.04
2022-10-22T12:05:35.420Z,19.60
2022-10-22T12:06:35.476Z,19.64
2022-10-22T12:07:35.462Z,19.77
2022-10-22T12:08:35.550Z,19.53
2022-10-22T12:09:35.528Z,19.45
2022-10-22T12:10:35.597Z,19.39
2022-10-22T12:11:35.574Z,19.57
2022-10-22T12:12:35.603Z,19.75
2022-10-22T12:13:36.571Z,19.66
2022-10-22T12:14:35.659Z,19.64
2022-10-22T12:15:35.692Z,19.92
2022-10-22T12:16:55.336Z,20.03
2022-10-22T12:17:35.812Z,19.89
2022-10-22T12:18:35.872Z,19.92
2022-10-22T12:19:35.878Z,20.36
2022-10-22T12:20:35.903Z,20.50
2022-10-22T12:21:36.013Z,20.07
2022-10-22T12:22:35.994Z,19.72
2022-10-22T12:23:35.995Z,19.63
2022-10-22T12:24:36.045Z,19.37
2022-10-22T12:25:36.133Z,19.24
2022-10-22T12:26:36.166Z,19.05
2022-10-22T12:27:36.184Z,18.85
2022-10-22T12:28:36.236Z,18.74
2022-10-22T12:29:36.196Z,18.67
2022-10-22T12:30:36.257Z,18.51
2022-10-22T12:31:36.277Z,18.39
2022-10-22T12:32:36.337Z,18.37
2022-10-22T12:33:36.397Z,18.30
2022-10-22T12:34:36.405Z,18.26
2022-10-22T12:35:36.427Z,18.24
2022-10-22T12:36:36.429Z,18.19
2022-10-22T12:37:36.512Z,18.21
2022-10-22T12:38:36.740Z,18.23
2022-10-22T12:39:36.590Z,18.15
2022-10-22T12:40:36.601Z,18.13
2022-10-22T12:41:36.663Z,18.11
2022-10-22T12:42:36.724Z,18.13
2022-10-22T12:43:36.752Z,18.13
2022-10-22T12:44:36.782Z,18.06
2022-10-22T12:45:36.782Z,17.95
2022-10-22T12:46:36.812Z,17.93
2022-10-22T12:47:36.794Z,17.94
2022-10-22T12:48:36.793Z,17.93
2022-10-22T12:49:36.844Z,17.87
2022-10-22T12:50:36.813Z,17.86
2022-10-22T12:51:36.835Z,17.86
2022-10-22T12:52:36.853Z,17.78
2022-10-22T12:53:36.895Z,17.71
2022-10-22T12:54:36.926Z,17.69
2022-10-22T12:55:36.976Z,17.65
2022-10-22T12:56:36.956Z,17.60
2022-10-22T12:57:37.007Z,17.60
2022-10-22T12:58:37.077Z,17.60
2022-10-22T12:59:37.225Z,17.60
2022-10-22T13:00:37.302Z,17.60
2022-10-22T13:01:37.238Z,17.56
2022-10-22T13:02:37.228Z,17.52
2022-10-22T13:03:37.209Z,17.53